createdAt,value
2022-12-01T00:01:06.380Z,22.35
2022-12-01T00:03:33.549Z,22.00
2022-12-01T00:06:00.341Z,22.87
2022-12-01T00:08:27.606Z,22.08
2022-12-01T00:10:54.558Z,23.23
2022-12-01T00:13:21.728Z,23.63
2022-12-01T00:15:48.187Z,21.20
2022-12-01T00:18:14.624Z,21.33
2022-12-01T00:20:41.134Z,22.40
2022-12-01T00:23:08.073Z,21.27
2022-12-01T00:25:34.509Z,20.85
2022-12-01T00:28:01.043Z,22.40
2022-12-01T00:30:27.461Z,21.60
2022-12-01T00:32:53.946Z,21.85
2022-12-01T00:35:20.346Z,23.25
2022-12-01T00:37:46.849Z,21.90
2022-12-01T00:40:13.881Z,22.70
2022-12-01T00:42:40.813Z,22.57
2022-12-01T00:45:07.740Z,22.40
2022-12-01T00:47:34.202Z,22.08
2022-12-01T00:50:00.617Z,23.08
2022-12-01T00:52:27.081Z,22.23
2022-12-01T00:54:53.586Z,24.00
2022-12-01T00:57:20.123Z,22.23
2022-12-01T00:59:47.232Z,23.40
2022-12-01T01:02:14.039Z,23.10
2022-12-01T01:04:40.564Z,24.15
2022-12-01T01:07:07.112Z,22.90
2022-12-01T01:09:33.593Z,22.88
2022-12-01T01:12:00.076Z,24.23
2022-12-01T01:14:26.584Z,22.33
2022-12-01T01:16:54.108Z,23.15
2022-12-01T01:19:20.561Z,24.30
2022-12-01T01:21:46.988Z,26.08
2022-12-01T01:24:13.415Z,25.58
2022-12-01T01:26:39.808Z,24.90
2022-12-01T01:29:10.009Z,25.67
2022-12-01T01:31:36.564Z,25.27
2022-12-01T01:34:03.809Z,26.85
2022-12-01T01:36:30.526Z,25.60
2022-12-01T01:38:57.102Z,24.08
2022-12-01T01:41:24.103Z,25.13
2022-12-01T01:43:55.643Z,24.47
2022-12-01T01:46:28.184Z,25.13
2022-12-01T01:49:05.915Z,26.13
2022-12-01T01:51:53.514Z,25.20
2022-12-01T01:54:31.525Z,23.23
2022-12-01T01:57:00.598Z,23.43
2022-12-01T01:59:31.671Z,25.35
2022-12-01T02:02:09.661Z,23.13
2022-12-01T02:04:40.443Z,23.98
2022-12-01T02:07:08.456Z,24.85
2022-12-01T02:09:36.140Z,24.30
2022-12-01T02:12:25.932Z,25.35
2022-12-01T02:15:07.646Z,23.25
2022-12-01T02:17:44.969Z,23.75
2022-12-01T02:20:23.742Z,23.92
2022-12-01T02:23:18.346Z,23.57
2022-12-01T02:26:01.943Z,22.50
2022-12-01T02:28:56.368Z,25.10
2022-12-01T02:31:39.635Z,23.77
2022-12-01T02:34:14.789Z,25.67
2022-12-01T02:36:54.396Z,24.03
2022-12-01T02:39:33.563Z,23.58
2022-12-01T02:42:35.243Z,25.83
2022-12-01T02:45:05.933Z,24.63
2022-12-01T02:47:34.613Z,24.95
2022-12-01T02:50:02.172Z,22.87
2022-12-01T02:52:29.011Z,24.83
2022-12-01T02:54:56.806Z,23.92
2022-12-01T02:57:24.156Z,24.65
2022-12-01T02:59:55.120Z,25.15
2022-12-01T03:02:34.036Z,22.53
2022-12-01T03:05:28.110Z,23.90
2022-12-01T03:08:06.981Z,23.38
2022-12-01T03:10:56.295Z,23.55
2022-12-01T03:13:46.731Z,24.88
2022-12-01T03:16:16.385Z,22.83
2022-12-01T03:19:07.107Z,23.45
2022-12-01T03:21:40.458Z,24.02
2022-12-01T03:24:23.813Z,24.77
2022-12-01T03:26:56.989Z,25.17
2022-12-01T03:29:36.409Z,23.97
2022-12-01T03:32:08.313Z,25.30
2022-12-01T03:34:44.145Z,23.58
2022-12-01T03:37:18.231Z,25.27
2022-12-01T03:39:47.943Z,24.83
2022-12-01T03:42:25.219Z,26.03
2022-12-01T03:44:59.639Z,25.00
2022-12-01T03:47:31.978Z,24.25
2022-12-01T03:50:00.392Z,24.33
2022-12-01T03:52:38.896Z,22.17
2022-12-01T03:55:09.180Z,23.87
2022-12-01T03:57:58.946Z,24.73
2022-12-01T04:00:25.533Z,23.88
2022-12-01T04:02:56.723Z,23.00
2022-12-01T04:05:25.421Z,22.58
2022-12-01T04:07:53.336Z,24.53
2022-12-01T04:10:20.026Z,23.45
2022-12-01T04:12:46.528Z,23.88
2022-12-01T04:15:14.473Z,23.70
2022-12-01T04:17:45.113Z,24.80
2022-12-01T04:20:17.686Z,22.30
2022-12-01T04:22:44.419Z,22.30
2022-12-01T04:25:11.683Z,24.95
2022-12-01T04:27:38.950Z,23.70
2022-12-01T04:30:07.433Z,22.75
2022-12-01T04:32:38.797Z,22.80
2022-12-01T04:35:06.991Z,23.02
2022-12-01T04:37:33.672Z,23.48
2022-12-01T04:40:00.115Z,21.77
2022-12-01T04:42:27.492Z,21.58
2022-12-01T04:44:53.990Z,22.10
2022-12-01T04:47:20.425Z,23.48
2022-12-01T04:49:47.094Z,23.50
2022-12-01T04:52:13.809Z,23.13
2022-12-01T04:54:40.422Z,24.65
2022-12-01T04:57:06.934Z,22.30
2022-12-01T04:59:33.468Z,23.77
2022-12-01T05:01:59.981Z,22.50
2022-12-01T05:04:26.512Z,22.83
2022-12-01T05:06:55.643Z,24.42
2022-12-01T05:09:22.119Z,25.90
2022-12-01T05:11:48.539Z,24.05
2022-12-01T05:14:15.072Z,22.33
2022-12-01T05:16:41.568Z,23.98
2022-12-01T05:19:26.601Z,24.30
2022-12-01T05:21:53.125Z,21.80
2022-12-01T05:24:20.960Z,22.08
2022-12-01T05:26:47.796Z,23.95
2022-12-01T05:29:14.608Z,21.52
2022-12-01T05:31:41.261Z,22.88
2022-12-01T05:34:08.765Z,23.40
2022-12-01T05:36:35.373Z,23.63
2022-12-01T05:39:01.927Z,23.70
2022-12-01T05:41:28.435Z,22.13
2022-12-01T05:43:54.897Z,23.50
2022-12-01T05:46:21.362Z,23.07
2022-12-01T05:48:47.941Z,23.02
2022-12-01T05:51:16.673Z,23.92
2022-12-01T05:53:43.466Z,23.73
2022-12-01T05:56:10.652Z,23.25
2022-12-01T05:58:37.112Z,22.63
2022-12-01T06:01:03.940Z,22.73
2022-12-01T06:03:30.364Z,24.65
2022-12-01T06:05:56.887Z,23.42
2022-12-01T06:08:23.473Z,24.27
2022-12-01T06:10:49.887Z,22.20
2022-12-01T06:13:16.353Z,22.77
2022-12-01T06:15:42.835Z,23.85
2022-12-01T06:18:09.539Z,27.20
2022-12-01T06:20:36.052Z,24.63
2022-12-01T06:23:02.942Z,25.70
2022-12-01T06:25:29.450Z,24.48
2022-12-01T06:27:57.732Z,24.75
2022-12-01T06:30:25.314Z,23.50
2022-12-01T06:32:51.855Z,24.67
2022-12-01T06:35:18.614Z,22.47
2022-12-01T06:37:45.081Z,23.52
2022-12-01T06:40:12.265Z,22.58
2022-12-01T06:42:38.742Z,25.33
2022-12-01T06:45:05.596Z,24.90
2022-12-01T06:47:32.045Z,23.27
2022-12-01T06:49:58.494Z,25.10
2022-12-01T06:52:24.934Z,25.27
2022-12-01T06:54:51.458Z,24.10
2022-12-01T06:57:18.206Z,23.55
2022-12-01T06:59:45.275Z,22.10
2022-12-01T07:02:12.119Z,23.05
2022-12-01T07:04:38.660Z,23.45
2022-12-01T07:07:06.279Z,23.75
2022-12-01T07:09:32.960Z,23.92
2022-12-01T07:11:59.677Z,24.40
2022-12-01T07:14:26.772Z,23.40
2022-12-01T07:16:53.408Z,23.95
2022-12-01T07:19:20.097Z,24.08
2022-12-01T07:21:46.534Z,23.02
2022-12-01T07:24:13.327Z,23.97
2022-12-01T07:26:41.217Z,23.55
2022-12-01T07:29:09.214Z,24.65
2022-12-01T07:31:36.828Z,23.52
2022-12-01T07:34:03.977Z,24.50
2022-12-01T07:36:30.697Z,25.67
2022-12-01T07:38:57.212Z,25.77
2022-12-01T07:41:23.743Z,24.58
2022-12-01T07:43:50.567Z,23.85
2022-12-01T07:46:24.181Z,26.30
2022-12-01T07:48:52.120Z,25.77
2022-12-01T07:51:19.508Z,28.05
2022-12-01T07:53:49.233Z,26.75
2022-12-01T07:56:16.330Z,25.63
2022-12-01T07:58:42.832Z,27.13
2022-12-01T08:01:14.985Z,26.83
2022-12-01T08:03:42.405Z,26.40
2022-12-01T08:06:09.906Z,26.05
2022-12-01T08:08:37.707Z,27.13
2022-12-01T08:11:07.289Z,27.40
2022-12-01T08:13:34.274Z,27.03
2022-12-01T08:16:04.678Z,28.08
2022-12-01T08:18:31.251Z,25.65
2022-12-01T08:20:58.320Z,27.77
2022-12-01T08:23:24.771Z,28.50
2022-12-01T08:25:52.562Z,28.87
2022-12-01T08:28:19.863Z,28.58
2022-12-01T08:30:47.199Z,29.33
2022-12-01T08:33:14.052Z,29.35
2022-12-01T08:35:40.614Z,28.98
2022-12-01T08:38:07.042Z,28.80
2022-12-01T08:40:33.519Z,30.15
2022-12-01T08:42:59.964Z,29.23
2022-12-01T08:45:26.404Z,28.17
2022-12-01T08:47:53.914Z,31.00
2022-12-01T08:50:20.414Z,28.70
2022-12-01T08:52:46.861Z,28.15
2022-12-01T08:55:13.344Z,31.25
2022-12-01T08:57:39.810Z,28.88
2022-12-01T09:00:06.988Z,28.67
2022-12-01T09:02:33.533Z,28.73
2022-12-01T09:05:00.048Z,31.58
2022-12-01T09:07:27.093Z,29.98
2022-12-01T09:09:53.737Z,30.92
2022-12-01T09:12:20.157Z,32.42
2022-12-01T09:14:49.831Z,31.03
2022-12-01T09:17:18.011Z,29.90
2022-12-01T09:19:44.699Z,29.42
2022-12-01T09:22:12.012Z,29.88
2022-12-01T09:24:38.813Z,28.08
2022-12-01T09:27:05.864Z,29.97
2022-12-01T09:29:32.776Z,29.90
2022-12-01T09:32:00.407Z,31.80
2022-12-01T09:34:27.883Z,29.60
2022-12-01T09:36:58.508Z,30.17
2022-12-01T09:39:25.546Z,31.37
2022-12-01T09:42:16.309Z,31.00
2022-12-01T09:44:48.488Z,30.55
2022-12-01T09:47:29.172Z,31.25
2022-12-01T09:50:13.219Z,31.73
2022-12-01T09:52:46.436Z,29.20
2022-12-01T09:55:16.298Z,29.55
2022-12-01T09:57:46.693Z,30.85
2022-12-01T10:00:18.084Z,30.13
2022-12-01T10:02:52.761Z,31.13
2022-12-01T10:05:22.246Z,31.77
2022-12-01T10:07:57.490Z,30.30
2022-12-01T10:10:24.237Z,31.70
2022-12-01T10:12:50.773Z,30.08
2022-12-01T10:15:39.549Z,32.42
2022-12-01T10:18:31.704Z,30.50
2022-12-01T10:21:29.137Z,28.90
2022-12-01T10:24:10.043Z,30.25
2022-12-01T10:26:50.852Z,30.67
2022-12-01T10:29:48.032Z,31.40
2022-12-01T10:32:23.374Z,29.67
2022-12-01T10:34:49.854Z,30.95
2022-12-01T10:37:25.895Z,33.15
2022-12-01T10:39:54.965Z,31.15
2022-12-01T10:42:32.597Z,31.92
2022-12-01T10:45:09.919Z,31.77
2022-12-01T10:47:36.369Z,31.95
2022-12-01T10:50:04.482Z,32.25
2022-12-01T10:52:39.886Z,31.80
2022-12-01T10:55:26.852Z,33.35
2022-12-01T10:58:03.462Z,31.63
2022-12-01T11:03:29.289Z,31.30
2022-12-01T11:05:58.533Z,29.88
2022-12-01T11:08:31.039Z,29.15
2022-12-01T11:10:57.508Z,30.70
2022-12-01T11:13:30.447Z,30.05
2022-12-01T11:16:02.803Z,31.17
2022-12-01T11:18:33.595Z,32.08
2022-12-01T11:21:14.071Z,31.45
2022-12-01T11:23:51.945Z,30.80
2022-12-01T11:26:26.369Z,30.00
2022-12-01T11:28:56.842Z,31.45
2022-12-01T11:31:38.207Z,30.45
2022-12-01T11:34:05.596Z,28.65
2022-12-01T11:36:42.372Z,28.67
2022-12-01T11:39:28.088Z,29.88
2022-12-01T11:42:00.585Z,30.80
2022-12-01T11:44:50.374Z,28.67
2022-12-01T11:47:23.651Z,26.95
2022-12-01T11:49:59.138Z,27.17
2022-12-01T11:52:28.329Z,29.35
2022-12-01T11:55:00.018Z,28.45
2022-12-01T11:57:34.671Z,29.10
2022-12-01T12:00:05.869Z,28.40
2022-12-01T12:02:43.673Z,28.57
2022-12-01T12:05:16.038Z,28.73
2022-12-01T12:07:48.273Z,29.30
2022-12-01T12:10:30.075Z,27.83
2022-12-01T12:13:24.241Z,28.27
2022-12-01T12:16:26.408Z,28.00
2022-12-01T12:19:07.258Z,25.75
2022-12-01T12:21:44.922Z,26.40
2022-12-01T12:24:26.352Z,24.63
2022-12-01T12:26:58.892Z,28.02
2022-12-01T12:29:42.982Z,27.37
2022-12-01T12:32:36.511Z,26.60
2022-12-01T12:35:09.868Z,25.70
2022-12-01T12:38:11.554Z,26.95
2022-12-01T12:40:47.165Z,25.58
2022-12-01T12:43:31.492Z,25.33
2022-12-01T12:46:11.732Z,26.75
2022-12-01T12:49:18.813Z,25.77
2022-12-01T12:51:56.131Z,24.17
2022-12-01T12:54:33.500Z,25.45
2022-12-01T12:57:26.274Z,26.63
2022-12-01T13:00:07.174Z,26.20
2022-12-01T13:03:01.641Z,25.67
2022-12-01T13:05:40.301Z,23.42
2022-12-01T13:08:28.565Z,26.27
2022-12-01T13:11:11.448Z,24.67
2022-12-01T13:14:04.063Z,26.33
2022-12-01T13:16:44.313Z,25.08
2022-12-01T13:19:16.602Z,25.75
2022-12-01T13:21:45.212Z,24.50
2022-12-01T13:24:23.374Z,23.83
2022-12-01T13:26:55.522Z,24.50
2022-12-01T13:29:24.622Z,26.13
2022-12-01T13:31:53.257Z,23.33
2022-12-01T13:34:29.093Z,25.33
2022-12-01T13:36:56.406Z,25.53
2022-12-01T13:39:28.983Z,25.33
2022-12-01T13:42:27.016Z,23.98
2022-12-01T13:44:56.977Z,25.13
2022-12-01T13:47:38.768Z,23.45
2022-12-01T13:50:38.961Z,24.17
2022-12-01T13:53:17.718Z,24.98
2022-12-01T13:56:06.963Z,24.45
2022-12-01T13:58:33.364Z,23.92
2022-12-01T14:01:21.965Z,23.73
2022-12-01T14:03:58.054Z,24.97
2022-12-01T14:06:30.680Z,25.35
2022-12-01T14:09:05.028Z,24.38
2022-12-01T14:11:34.526Z,24.38
2022-12-01T14:14:12.267Z,25.15
2022-12-01T14:16:49.835Z,24.30
2022-12-01T14:19:28.527Z,24.17
2022-12-01T14:21:55.037Z,24.50
2022-12-01T14:24:28.403Z,23.20
2022-12-01T14:26:55.563Z,24.65
2022-12-01T14:29:31.315Z,25.80
2022-12-01T14:32:00.849Z,26.58
2022-12-01T14:34:31.601Z,25.40
2022-12-01T14:37:09.862Z,25.25
2022-12-01T14:39:43.668Z,24.98
2022-12-01T14:42:47.527Z,25.07
2022-12-01T14:45:22.562Z,25.30
2022-12-01T14:48:08.429Z,25.45
2022-12-01T14:50:46.417Z,27.67
2022-12-01T14:53:31.136Z,26.77
2022-12-01T14:56:08.313Z,27.23
2022-12-01T14:58:34.927Z,26.17
2022-12-01T15:01:10.203Z,23.65
2022-12-01T15:03:47.206Z,24.25
2022-12-01T15:06:22.385Z,23.15
2022-12-01T15:09:32.050Z,24.97
2022-12-01T15:12:00.440Z,23.88
2022-12-01T15:14:32.760Z,24.23
2022-12-01T15:16:59.623Z,25.35
2022-12-01T15:19:36.782Z,25.42
2022-12-01T15:22:14.552Z,23.47
2022-12-01T15:24:41.674Z,25.05
2022-12-01T15:27:32.373Z,23.77
2022-12-01T15:30:04.192Z,26.50
2022-12-01T15:32:34.408Z,30.13
2022-12-01T15:35:03.494Z,30.63
2022-12-01T15:37:40.557Z,28.75
2022-12-01T15:40:59.737Z,29.92
2022-12-01T15:43:14.316Z,29.75
2022-12-01T15:45:50.920Z,32.08
2022-12-01T15:48:26.849Z,33.73
2022-12-01T15:51:03.564Z,34.42
2022-12-01T15:53:33.408Z,33.35
2022-12-01T15:56:03.063Z,30.50
2022-12-01T15:58:32.943Z,30.00
2022-12-01T16:01:02.058Z,26.83
2022-12-01T16:03:28.956Z,29.23
2022-12-01T16:05:56.230Z,30.30
2022-12-01T16:08:27.896Z,28.23
2022-12-01T16:11:11.187Z,28.70
2022-12-01T16:13:47.875Z,26.47
2022-12-01T16:17:02.066Z,28.77
2022-12-01T16:19:33.563Z,28.42
2022-12-01T16:22:12.423Z,31.50
2022-12-01T16:24:52.667Z,35.75
2022-12-01T16:27:25.544Z,30.27
2022-12-01T16:30:01.666Z,28.50
2022-12-01T16:32:40.124Z,29.38
2022-12-01T16:35:23.110Z,30.52
2022-12-01T16:37:49.544Z,28.65
2022-12-01T16:40:19.375Z,31.40
2022-12-01T16:42:46.857Z,29.50
2022-12-01T16:45:14.935Z,29.23
2022-12-01T16:47:42.468Z,27.15
2022-12-01T16:50:20.413Z,26.95
2022-12-01T16:52:47.054Z,27.10
2022-12-01T16:55:31.632Z,29.05
2022-12-01T16:57:58.108Z,27.60
2022-12-01T17:00:25.001Z,47.22
2022-12-01T17:02:52.704Z,32.78
2022-12-01T17:05:19.412Z,34.57
2022-12-01T17:07:46.038Z,29.73
2022-12-01T17:10:12.792Z,29.27
2022-12-01T17:12:39.736Z,28.08
2022-12-01T17:15:06.706Z,28.55
2022-12-01T17:17:33.408Z,27.70
2022-12-01T17:19:59.876Z,27.33
2022-12-01T17:22:26.308Z,28.23
2022-12-01T17:24:54.697Z,27.50
2022-12-01T17:27:22.276Z,31.08
2022-12-01T17:29:48.853Z,31.20
2022-12-01T17:32:15.495Z,54.22
2022-12-01T17:34:41.953Z,54.97
2022-12-01T17:37:08.388Z,58.35
2022-12-01T17:39:34.882Z,42.38
2022-12-01T17:42:01.386Z,95.70
2022-12-01T17:44:27.852Z,72.82
2022-12-01T17:46:54.410Z,84.63
2022-12-01T17:49:21.258Z,69.22
2022-12-01T17:51:47.844Z,47.72
2022-12-01T17:54:14.488Z,68.30
2022-12-01T17:56:41.034Z,64.05
2022-12-01T17:59:07.520Z,39.28
2022-12-01T18:01:34.150Z,33.13
2022-12-01T18:04:00.706Z,30.80
2022-12-01T18:06:27.616Z,33.60
2022-12-01T18:08:54.953Z,33.92
2022-12-01T18:11:22.106Z,31.60
2022-12-01T18:13:50.456Z,33.60
2022-12-01T18:16:29.071Z,32.47
2022-12-01T18:18:57.554Z,27.07
2022-12-01T18:21:25.485Z,28.85
2022-12-01T18:23:54.965Z,28.98
2022-12-01T18:26:22.812Z,28.05
2022-12-01T18:29:01.040Z,29.15
2022-12-01T18:31:29.153Z,29.80
2022-12-01T18:33:59.182Z,29.42
2022-12-01T18:36:26.480Z,29.83
2022-12-01T18:38:54.564Z,30.63
2022-12-01T18:41:21.525Z,28.85
2022-12-01T18:43:48.113Z,31.17
2022-12-01T18:46:16.599Z,37.83
2022-12-01T18:48:52.019Z,41.65
2022-12-01T18:51:19.325Z,31.50
2022-12-01T18:53:46.136Z,31.00
2022-12-01T18:56:15.214Z,30.87
2022-12-01T18:58:42.327Z,33.55
2022-12-01T19:01:24.439Z,31.83
2022-12-01T19:03:51.421Z,44.40
2022-12-01T19:06:18.345Z,29.67
2022-12-01T19:08:44.872Z,28.40
2022-12-01T19:11:11.308Z,29.08
2022-12-01T19:13:37.832Z,28.50
2022-12-01T19:16:26.588Z,27.98
2022-12-01T19:18:53.298Z,32.10
2022-12-01T19:21:20.281Z,28.07
2022-12-01T19:23:46.929Z,28.55
2022-12-01T19:26:16.165Z,29.65
2022-12-01T19:28:45.361Z,27.30
2022-12-01T19:31:17.675Z,25.90
2022-12-01T19:33:44.684Z,28.30
2022-12-01T19:36:13.945Z,29.40
2022-12-01T19:38:41.042Z,28.73
2022-12-01T19:41:09.202Z,27.80
2022-12-01T19:43:36.386Z,27.15
2022-12-01T19:46:11.823Z,28.90
2022-12-01T19:48:38.671Z,33.05
2022-12-01T19:51:05.462Z,30.77
2022-12-01T19:53:34.006Z,32.78
2022-12-01T19:56:05.023Z,34.80
2022-12-01T19:58:34.787Z,30.80
2022-12-01T20:01:06.659Z,30.52
2022-12-01T20:03:33.730Z,30.88
2022-12-01T20:06:05.296Z,34.80
2022-12-01T20:08:35.666Z,36.13
2022-12-01T20:11:05.986Z,32.57
2022-12-01T20:13:34.017Z,31.98
2022-12-01T20:16:05.650Z,32.75
2022-12-01T20:18:32.221Z,28.92
2022-12-01T20:21:05.754Z,31.63
2022-12-01T20:23:33.166Z,39.00
2022-12-01T20:26:05.614Z,37.42
2022-12-01T20:28:32.845Z,36.08
2022-12-01T20:30:59.673Z,33.33
2022-12-01T20:33:26.802Z,35.60
2022-12-01T20:35:53.306Z,31.87
2022-12-01T20:38:25.764Z,33.53
2022-12-01T20:40:53.822Z,32.80
2022-12-01T20:43:20.324Z,31.13
2022-12-01T20:45:46.932Z,32.42
2022-12-01T20:48:14.129Z,30.77
2022-12-01T20:50:40.715Z,30.08
2022-12-01T20:53:07.401Z,28.67
2022-12-01T20:55:36.135Z,31.35
2022-12-01T20:58:04.203Z,29.00
2022-12-01T21:00:31.503Z,27.73
2022-12-01T21:02:57.963Z,29.60
2022-12-01T21:05:25.494Z,29.48
2022-12-01T21:07:52.041Z,26.80
2022-12-01T21:10:20.298Z,26.40
2022-12-01T21:13:09.393Z,30.73
2022-12-01T21:15:46.330Z,30.38
2022-12-01T21:18:21.192Z,31.73
2022-12-01T21:20:50.589Z,30.30
2022-12-01T21:23:17.337Z,32.20
2022-12-01T21:25:44.790Z,28.77
2022-12-01T21:28:20.191Z,30.15
2022-12-01T21:30:48.180Z,30.17
2022-12-01T21:33:27.516Z,29.30
2022-12-01T21:35:55.826Z,30.55
2022-12-01T21:38:22.803Z,29.30
2022-12-01T21:40:49.460Z,28.83
2022-12-01T21:43:24.360Z,28.02
2022-12-01T21:46:00.384Z,31.05
2022-12-01T21:48:34.069Z,34.20
2022-12-01T21:51:02.354Z,30.33
2022-12-01T21:53:36.205Z,29.88
2022-12-01T21:56:03.053Z,31.45
2022-12-01T21:58:36.287Z,30.73
2022-12-01T22:01:26.115Z,31.23
2022-12-01T22:04:00.535Z,28.13
2022-12-01T22:06:40.926Z,29.65
2022-12-01T22:09:42.880Z,31.98
2022-12-01T22:12:27.581Z,31.27
2022-12-01T22:15:00.089Z,31.25
2022-12-01T22:17:27.732Z,31.00
2022-12-01T22:20:00.030Z,29.88
2022-12-01T22:22:28.921Z,28.73
2022-12-01T22:24:59.315Z,29.42
2022-12-01T22:27:43.238Z,30.27
2022-12-01T22:30:09.601Z,30.73
2022-12-01T22:32:56.309Z,31.23
2022-12-01T22:35:31.588Z,30.85
2022-12-01T22:38:07.107Z,30.80
2022-12-01T22:40:36.380Z,31.65
2022-12-01T22:43:18.143Z,30.73
2022-12-01T22:46:11.728Z,30.27
2022-12-01T22:48:47.630Z,30.67
2022-12-01T22:51:14.040Z,28.38
2022-12-01T22:53:41.989Z,30.15
2022-12-01T22:56:26.275Z,31.53
2022-12-01T22:58:53.433Z,29.40
2022-12-01T23:01:33.561Z,29.50
2022-12-01T23:04:22.533Z,30.70
2022-12-01T23:06:48.933Z,28.92
2022-12-01T23:09:15.557Z,30.23
2022-12-01T23:11:50.893Z,30.10
2022-12-01T23:14:21.253Z,30.38
2022-12-01T23:16:48.203Z,30.13
2022-12-01T23:19:14.649Z,30.92
2022-12-01T23:21:41.110Z,30.63
2022-12-01T23:24:13.016Z,30.63
2022-12-01T23:26:39.466Z,30.25
2022-12-01T23:29:05.884Z,33.00
2022-12-01T23:31:32.507Z,32.63
2022-12-01T23:33:59.113Z,31.10
2022-12-01T23:36:28.918Z,31.25
2022-12-01T23:39:02.480Z,32.13
2022-12-01T23:41:38.759Z,30.27
2022-12-01T23:44:20.288Z,33.33
2022-12-01T23:46:49.770Z,32.17
2022-12-01T23:49:20.216Z,33.58
2022-12-01T23:51:59.210Z,34.78
2022-12-01T23:54:34.573Z,35.42
2022-12-01T23:57:04.157Z,34.83
2022-12-01T23:59:31.936Z,35.03
